首页
METAR-TAF:

METAR-TAF

机场 :

墨西哥城贝尼托·胡亚雷斯国际机场

墨西哥城, 墨西哥

纬度: 19-26N, 经度: 099-06W, 海拔: 2238米

当前天气观测

该预报发布于57分钟前的07:42 UTC
静风
温度 18°C
湿度 42%
气压 1024 hPa
能見度: 19.3公里
天空无云

METAR: MMMX 170742Z 00000KT 12SM SKC 18/05 A3023 NOSIG

时间: 02:39 (08:39 UTC)

预报

该预报发布于4小时和14分钟前的04:25 UTC
预报有效从17日的 06点(UTC)到 18日的 12点(UTC)
风速5节,风向东转东南
能見度: 10公里
天空无云
从 17日的 1800点(UTC)
风速10节,风向西南
能見度: 10公里
散云层高于2500英尺
成为
从 18日的 05点(UTC)到 18日的 07点(UTC)
风速5节,风向东转东南
天空无云

TAF: MMMX 170425Z 1706/1812 12005KT P6SM SKC TX28/1721Z TN12/1712Z FM171800 22010KT P6SM SCT025 BECMG 1805/1807 12005KT SKC

超过4000个机场的气象观测和天气预报(METAR&TAF报告)。

可查询的气象台以黄色和红色小点在地图上表示。

将鼠标移到小点上方,可查看气象台名称。

然后点击查看天气观测和预报。

如需切换地图:点击带黑十字的绿色按钮放大地图;点击带横线的绿色按钮缩小地图;或者点击绿色箭头查看邻近地区的地图。


METAR-TAF: